Time;durP1;ratioP1;P1;durP2;ratioP2;P2;SDS_P1;SDS_P2;PMS_P1;PMS_P2;Temp;Humidity;BMP_temperature;BMP_pressure;BME280_temperature;BME280_humidity;BME280_pressure;Samples;Min_cycle;Max_cycle;Signal;HPM_P1;HPM_P2
2023/09/13 00:01:17;;;;;;;0.40;0.40;;;;;;;;;;10317578;28;20220;-78
2023/09/13 00:06:18;;;;;;;0.15;0.15;;;;;;;;;;10309355;28;20750;-80
2023/09/13 00:11:19;;;;;;;0.00;0.00;;;;;;;;;;10315878;28;20224;-77
2023/09/13 00:16:20;;;;;;;0.00;0.00;;;;;;;;;;10312360;28;20273;-76
2023/09/13 00:21:21;;;;;;;0.80;0.22;;;;;;;;;;10301646;28;20644;-79
2023/09/13 00:26:22;;;;;;;0.00;0.00;;;;;;;;;;10315684;28;20220;-77
2023/09/13 00:31:25;;;;;;;0.25;0.25;;;;;;;;;;10294052;28;20255;-83
2023/09/13 00:36:26;;;;;;;0.03;0.03;;;;;;;;;;10307251;28;20227;-77
2023/09/13 00:41:27;;;;;;;0.30;0.20;;;;;;;;;;10292303;28;20283;-78
2023/09/13 00:46:29;;;;;;;0.05;0.05;;;;;;;;;;10295649;28;20667;-78
2023/09/13 00:51:31;;;;;;;0.17;0.17;;;;;;;;;;10295534;28;20299;-81
2023/09/13 00:56:32;;;;;;;1.95;0.40;;;;;;;;;;10303587;28;20326;-78
2023/09/13 01:01:34;;;;;;;0.77;0.73;;;;;;;;;;10299325;28;20225;-79
2023/09/13 01:06:36;;;;;;;1.30;0.70;;;;;;;;;;10262759;28;20268;-79
2023/09/13 01:11:37;;;;;;;1.23;1.13;;;;;;;;;;10269841;28;20228;-79
2023/09/13 01:16:49;;;;;;;0.40;0.40;;;;;;;;;;10245468;28;20671;-80
2023/09/13 01:22:02;;;;;;;2.47;0.30;;;;;;;;;;10262959;28;20381;-81
2023/09/13 01:27:22;;;;;;;2.65;0.47;;;;;;;;;;10255779;28;20221;-80
2023/09/13 01:32:23;;;;;;;0.30;0.30;;;;;;;;;;10279407;28;20216;-78
2023/09/13 01:37:24;;;;;;;0.38;0.38;;;;;;;;;;10257152;28;20220;-78
2023/09/13 01:42:25;;;;;;;0.15;0.15;;;;;;;;;;10257849;28;20229;-80
2023/09/13 01:47:27;;;;;;;0.00;0.00;;;;;;;;;;10245235;28;20323;-78
2023/09/13 01:52:29;;;;;;;0.75;0.10;;;;;;;;;;10278565;28;20332;-80
2023/09/13 01:57:30;;;;;;;0.00;0.00;;;;;;;;;;10284961;28;20289;-78
2023/09/13 02:02:31;;;;;;;0.17;0.17;;;;;;;;;;10280770;28;20209;-81
2023/09/13 02:07:32;;;;;;;0.00;0.00;;;;;;;;;;10296838;28;20671;-79
2023/09/13 02:12:33;;;;;;;0.10;0.10;;;;;;;;;;10307674;28;20216;-81
2023/09/13 02:17:34;;;;;;;0.00;0.00;;;;;;;;;;10307764;28;20216;-79
2023/09/13 02:22:35;;;;;;;0.00;0.00;;;;;;;;;;10312968;28;20256;-78
2023/09/13 02:27:36;;;;;;;0.10;0.00;;;;;;;;;;10312806;28;20933;-78
2023/09/13 02:32:37;;;;;;;0.17;0.17;;;;;;;;;;10304283;28;20836;-80
2023/09/13 02:37:38;;;;;;;0.00;0.00;;;;;;;;;;10310775;28;20223;-79
2023/09/13 02:42:39;;;;;;;0.00;0.00;;;;;;;;;;10305436;28;20217;-80
2023/09/13 02:47:41;;;;;;;0.00;0.00;;;;;;;;;;10293743;28;20212;-78
2023/09/13 02:52:42;;;;;;;0.50;0.50;;;;;;;;;;10307280;28;20216;-79
2023/09/13 02:57:43;;;;;;;1.10;0.38;;;;;;;;;;10307862;28;20234;-78
2023/09/13 03:02:44;;;;;;;0.20;0.20;;;;;;;;;;10306040;28;20821;-78
2023/09/13 03:07:45;;;;;;;0.00;0.00;;;;;;;;;;10304193;28;20787;-78
2023/09/13 03:12:46;;;;;;;1.55;0.30;;;;;;;;;;10308746;28;20622;-78
2023/09/13 03:17:48;;;;;;;0.00;0.00;;;;;;;;;;10306041;28;20287;-78
2023/09/13 03:22:49;;;;;;;0.00;0.00;;;;;;;;;;10317984;28;20220;-78
2023/09/13 03:27:51;;;;;;;0.00;0.00;;;;;;;;;;10312492;28;20296;-78
2023/09/13 03:32:52;;;;;;;0.08;0.03;;;;;;;;;;10314775;28;20217;-77
2023/09/13 03:37:53;;;;;;;0.00;0.00;;;;;;;;;;10316195;28;20876;-78
2023/09/13 03:42:55;;;;;;;0.17;0.17;;;;;;;;;;10305089;28;20235;-80
2023/09/13 03:47:56;;;;;;;0.00;0.00;;;;;;;;;;10307461;28;20679;-80
2023/09/13 03:52:58;;;;;;;0.00;0.00;;;;;;;;;;10314865;28;20248;-79
2023/09/13 03:57:59;;;;;;;0.00;0.00;;;;;;;;;;10315942;28;20229;-80
2023/09/13 04:03:00;;;;;;;0.00;0.00;;;;;;;;;;10324339;28;20259;-79
2023/09/13 04:08:01;;;;;;;0.00;0.00;;;;;;;;;;10303752;28;20274;-78
2023/09/13 04:13:02;;;;;;;0.00;0.00;;;;;;;;;;10297523;28;20234;-78
2023/09/13 04:18:04;;;;;;;0.00;0.00;;;;;;;;;;10306598;28;20244;-79
2023/09/13 04:23:06;;;;;;;0.25;0.25;;;;;;;;;;10313040;28;20240;-78
2023/09/13 04:28:07;;;;;;;0.20;0.10;;;;;;;;;;10307653;28;20230;-78
2023/09/13 04:33:09;;;;;;;0.20;0.20;;;;;;;;;;10303161;28;20219;-79
2023/09/13 04:38:10;;;;;;;0.00;0.00;;;;;;;;;;10296718;28;20291;-78
2023/09/13 04:43:11;;;;;;;0.20;0.15;;;;;;;;;;10294338;28;20232;-79
2023/09/13 04:48:13;;;;;;;0.13;0.13;;;;;;;;;;10305900;28;20225;-79
2023/09/13 04:53:14;;;;;;;0.00;0.00;;;;;;;;;;10298305;28;20216;-79
2023/09/13 04:58:16;;;;;;;0.13;0.13;;;;;;;;;;10312265;28;20243;-79
2023/09/13 05:03:17;;;;;;;0.10;0.10;;;;;;;;;;10314035;28;20227;-79
2023/09/13 05:08:18;;;;;;;0.00;0.00;;;;;;;;;;10310753;28;20740;-80
2023/09/13 05:13:19;;;;;;;0.00;0.00;;;;;;;;;;10305543;28;20216;-80
2023/09/13 05:18:20;;;;;;;0.00;0.00;;;;;;;;;;10292319;28;20213;-77
2023/09/13 05:23:21;;;;;;;0.32;0.32;;;;;;;;;;10302580;28;20221;-79
2023/09/13 05:28:22;;;;;;;0.00;0.00;;;;;;;;;;10313817;28;20592;-82
2023/09/13 05:33:25;;;;;;;0.10;0.10;;;;;;;;;;10311751;28;20212;-79
2023/09/13 05:38:26;;;;;;;0.20;0.10;;;;;;;;;;10329754;28;20215;-79
2023/09/13 05:43:28;;;;;;;0.10;0.10;;;;;;;;;;10300013;28;20263;-79
2023/09/13 05:48:30;;;;;;;0.57;0.52;;;;;;;;;;10328503;28;20243;-79
2023/09/13 05:53:31;;;;;;;0.00;0.00;;;;;;;;;;10302577;28;20208;-80
2023/09/13 05:58:32;;;;;;;0.08;0.08;;;;;;;;;;10300785;28;20309;-78
2023/09/13 06:03:33;;;;;;;0.00;0.00;;;;;;;;;;10294491;28;20853;-81
2023/09/13 06:08:34;;;;;;;0.13;0.13;;;;;;;;;;10295841;28;20255;-81
2023/09/13 06:13:35;;;;;;;0.08;0.08;;;;;;;;;;10310602;28;20235;-81
2023/09/13 06:18:36;;;;;;;0.03;0.03;;;;;;;;;;10311319;28;20243;-81
2023/09/13 06:23:38;;;;;;;0.10;0.10;;;;;;;;;;10315541;28;20608;-80
2023/09/13 06:28:40;;;;;;;0.30;0.00;;;;;;;;;;10303049;28;20225;-81
2023/09/13 06:33:41;;;;;;;0.00;0.00;;;;;;;;;;10302796;28;20939;-79
2023/09/13 06:38:42;;;;;;;0.20;0.05;;;;;;;;;;10317828;28;20238;-79
2023/09/13 06:43:44;;;;;;;0.85;0.15;;;;;;;;;;10308962;28;20231;-80
2023/09/13 06:48:45;;;;;;;0.08;0.08;;;;;;;;;;10304585;28;20220;-80
2023/09/13 06:53:47;;;;;;;0.20;0.20;;;;;;;;;;10307236;28;20225;-79
2023/09/13 06:58:48;;;;;;;0.10;0.10;;;;;;;;;;10297978;28;20228;-79
2023/09/13 07:03:49;;;;;;;0.22;0.22;;;;;;;;;;10311075;28;21433;-79
2023/09/13 07:08:50;;;;;;;0.20;0.20;;;;;;;;;;10339319;28;20229;-80
2023/09/13 07:13:51;;;;;;;0.00;0.00;;;;;;;;;;10283752;28;20303;-81
2023/09/13 07:18:54;;;;;;;0.20;0.20;;;;;;;;;;10325726;28;20276;-81
2023/09/13 07:23:55;;;;;;;0.10;0.10;;;;;;;;;;10305915;28;20220;-79
2023/09/13 07:28:56;;;;;;;0.10;0.10;;;;;;;;;;10296065;28;20675;-78
2023/09/13 07:34:02;;;;;;;0.10;0.10;;;;;;;;;;10310981;28;20675;-79
2023/09/13 07:39:03;;;;;;;0.20;0.20;;;;;;;;;;10305969;28;20208;-81
2023/09/13 07:44:04;;;;;;;0.30;0.30;;;;;;;;;;10330224;28;20232;-78
2023/09/13 07:49:05;;;;;;;0.70;0.40;;;;;;;;;;10313747;28;20216;-79
2023/09/13 07:54:07;;;;;;;0.30;0.30;;;;;;;;;;10317843;28;20356;-79
2023/09/13 07:59:13;;;;;;;0.20;0.20;;;;;;;;;;10321253;28;20861;-79
2023/09/13 08:04:14;;;;;;;0.35;0.35;;;;;;;;;;10321505;28;20216;-80
2023/09/13 08:09:16;;;;;;;0.50;0.50;;;;;;;;;;10264208;28;20253;-81
2023/09/13 08:14:17;;;;;;;0.30;0.30;;;;;;;;;;10266464;28;20252;-79
2023/09/13 08:19:18;;;;;;;0.50;0.50;;;;;;;;;;10264873;28;20226;-80
2023/09/13 08:24:19;;;;;;;0.40;0.40;;;;;;;;;;10249367;28;20240;-79
2023/09/13 08:29:20;;;;;;;0.30;0.30;;;;;;;;;;10292651;28;20722;-80
2023/09/13 08:34:22;;;;;;;0.40;0.40;;;;;;;;;;10260983;28;20217;-79
2023/09/13 08:39:23;;;;;;;1.65;0.30;;;;;;;;;;10287402;28;20213;-78
2023/09/13 08:44:25;;;;;;;0.20;0.20;;;;;;;;;;10285542;28;20229;-78
2023/09/13 08:49:26;;;;;;;0.25;0.25;;;;;;;;;;10245517;28;20213;-78
2023/09/13 08:54:28;;;;;;;0.43;0.20;;;;;;;;;;10273945;28;20243;-78
2023/09/13 08:59:29;;;;;;;0.32;0.32;;;;;;;;;;10272522;28;20252;-80
2023/09/13 09:04:30;;;;;;;0.30;0.30;;;;;;;;;;10294088;28;21052;-78
2023/09/13 09:09:31;;;;;;;0.10;0.10;;;;;;;;;;10285747;28;20287;-81
2023/09/13 09:14:33;;;;;;;0.85;0.50;;;;;;;;;;10252290;28;20229;-81
2023/09/13 09:19:35;;;;;;;0.73;0.73;;;;;;;;;;10226157;28;20445;-80
2023/09/13 09:24:36;;;;;;;0.15;0.15;;;;;;;;;;10250757;28;20303;-80
2023/09/13 09:29:41;;;;;;;1.77;0.50;;;;;;;;;;10204857;28;20665;-78
2023/09/13 09:34:42;;;;;;;0.30;0.30;;;;;;;;;;10287175;28;20887;-79
2023/09/13 09:39:43;;;;;;;0.10;0.10;;;;;;;;;;10253769;28;20228;-78
2023/09/13 09:44:44;;;;;;;0.50;0.50;;;;;;;;;;10285046;28;20232;-77
2023/09/13 09:49:49;;;;;;;0.40;0.40;;;;;;;;;;10257394;28;20225;-79
2023/09/13 09:54:51;;;;;;;0.22;0.22;;;;;;;;;;10263600;28;20280;-78
2023/09/13 09:59:52;;;;;;;0.30;0.30;;;;;;;;;;10263970;28;20217;-79
2023/09/13 10:04:53;;;;;;;0.13;0.13;;;;;;;;;;10230703;28;20228;-79
2023/09/13 10:09:55;;;;;;;0.10;0.10;;;;;;;;;;10329594;28;20547;-80
2023/09/13 10:14:56;;;;;;;0.25;0.25;;;;;;;;;;10313668;28;20220;-79
2023/09/13 10:19:58;;;;;;;0.20;0.20;;;;;;;;;;10315195;28;20295;-78
2023/09/13 10:25:00;;;;;;;0.20;0.20;;;;;;;;;;10313768;28;20215;-78
2023/09/13 10:30:05;;;;;;;0.10;0.10;;;;;;;;;;10322580;28;20236;-78
2023/09/13 10:35:06;;;;;;;0.00;0.00;;;;;;;;;;10316685;28;20560;-78
2023/09/13 10:40:11;;;;;;;0.00;0.00;;;;;;;;;;10313164;28;20676;-76
2023/09/13 10:45:18;;;;;;;0.45;0.10;;;;;;;;;;10313471;28;20196;-77
2023/09/13 10:50:19;;;;;;;0.05;0.05;;;;;;;;;;10327930;28;20197;-77
2023/09/13 10:55:21;;;;;;;0.10;0.10;;;;;;;;;;10314510;28;20196;-77
2023/09/13 11:00:22;;;;;;;0.28;0.28;;;;;;;;;;10326977;28;21001;-78
2023/09/13 11:05:23;;;;;;;0.03;0.03;;;;;;;;;;10308332;28;20241;-77
2023/09/13 11:10:30;;;;;;;0.20;0.20;;;;;;;;;;10327198;28;20203;-76
2023/09/13 11:15:31;;;;;;;0.00;0.00;;;;;;;;;;10322860;28;20279;-79
2023/09/13 11:20:36;;;;;;;0.00;0.00;;;;;;;;;;10304660;28;20229;-78
2023/09/13 11:25:40;;;;;;;0.10;0.10;;;;;;;;;;10292843;28;20657;-79
2023/09/13 11:30:50;;;;;;;0.10;0.10;;;;;;;;;;10310103;28;20949;-77
2023/09/13 11:35:52;;;;;;;0.20;0.20;;;;;;;;;;10298705;28;20610;-78
2023/09/13 11:40:56;;;;;;;0.25;0.25;;;;;;;;;;10309281;28;20236;-79
2023/09/13 11:45:58;;;;;;;0.13;0.13;;;;;;;;;;10292775;28;20220;-78
2023/09/13 11:51:09;;;;;;;0.10;0.10;;;;;;;;;;10301229;28;20209;-79
2023/09/13 11:56:30;;;;;;;0.10;0.10;;;;;;;;;;10302004;28;20247;-79
2023/09/13 12:01:31;;;;;;;0.00;0.00;;;;;;;;;;10287141;28;20274;-78
2023/09/13 12:06:41;;;;;;;0.20;0.20;;;;;;;;;;10300711;28;20226;-78
2023/09/13 12:11:42;;;;;;;0.15;0.15;;;;;;;;;;10314606;28;20266;-78
2023/09/13 12:16:44;;;;;;;0.20;0.20;;;;;;;;;;10295876;28;20299;-79
2023/09/13 12:21:45;;;;;;;0.10;0.10;;;;;;;;;;10297284;28;20231;-77
2023/09/13 12:26:46;;;;;;;0.15;0.15;;;;;;;;;;10298073;28;20741;-79
2023/09/13 12:31:48;;;;;;;0.50;0.20;;;;;;;;;;10295541;28;20307;-78
2023/09/13 12:36:50;;;;;;;0.20;0.20;;;;;;;;;;10294808;28;20319;-78
2023/09/13 12:41:51;;;;;;;0.40;0.40;;;;;;;;;;10288836;28;20229;-78
2023/09/13 12:46:52;;;;;;;0.30;0.30;;;;;;;;;;10304174;28;20252;-77
2023/09/13 12:51:53;;;;;;;0.17;0.17;;;;;;;;;;10307417;28;20216;-78
2023/09/13 12:57:00;;;;;;;0.20;0.20;;;;;;;;;;10295782;28;20228;-80
2023/09/13 13:02:01;;;;;;;0.25;0.25;;;;;;;;;;10287822;28;20930;-78
2023/09/13 13:07:03;;;;;;;0.10;0.10;;;;;;;;;;10321374;28;20282;-79
2023/09/13 13:12:05;;;;;;;0.10;0.10;;;;;;;;;;10334512;28;20212;-79
2023/09/13 13:17:06;;;;;;;0.17;0.10;;;;;;;;;;10304378;28;20212;-79
2023/09/13 13:22:07;;;;;;;0.10;0.10;;;;;;;;;;10300025;28;20224;-77
2023/09/13 13:27:08;;;;;;;0.10;0.10;;;;;;;;;;10297157;28;20220;-77
2023/09/13 13:32:10;;;;;;;0.10;0.10;;;;;;;;;;10326294;28;20795;-78
2023/09/13 13:37:11;;;;;;;0.20;0.20;;;;;;;;;;10301865;28;20310;-79
2023/09/13 13:42:12;;;;;;;0.20;0.20;;;;;;;;;;10314901;28;20220;-79
2023/09/13 13:47:13;;;;;;;0.00;0.00;;;;;;;;;;10294498;28;20208;-78
2023/09/13 13:52:14;;;;;;;0.00;0.00;;;;;;;;;;10305751;28;20954;-79
2023/09/13 13:57:15;;;;;;;0.00;0.00;;;;;;;;;;10294758;28;20216;-78
2023/09/13 14:02:17;;;;;;;0.10;0.10;;;;;;;;;;10278704;28;20311;-77
2023/09/13 14:07:18;;;;;;;0.00;0.00;;;;;;;;;;10307749;28;20798;-77
2023/09/13 14:12:19;;;;;;;0.10;0.10;;;;;;;;;;10316408;28;20224;-78
2023/09/13 14:17:20;;;;;;;0.00;0.00;;;;;;;;;;10320273;28;20216;-78
2023/09/13 14:22:21;;;;;;;0.05;0.05;;;;;;;;;;10319270;28;20219;-79
2023/09/13 14:27:24;;;;;;;0.10;0.10;;;;;;;;;;10346026;28;20216;-79
2023/09/13 14:32:26;;;;;;;0.20;0.20;;;;;;;;;;10323167;28;20219;-78
2023/09/13 14:37:27;;;;;;;0.20;0.20;;;;;;;;;;10331620;28;20235;-77
2023/09/13 14:42:28;;;;;;;0.10;0.10;;;;;;;;;;10320947;28;20266;-79
2023/09/13 14:47:30;;;;;;;0.25;0.25;;;;;;;;;;10325523;28;20352;-77
2023/09/13 14:52:37;;;;;;;0.10;0.10;;;;;;;;;;10304935;28;20316;-78
2023/09/13 14:57:38;;;;;;;0.38;0.00;;;;;;;;;;10324197;28;20315;-79
2023/09/13 15:02:42;;;;;;;0.10;0.10;;;;;;;;;;10321487;28;23848;-79
2023/09/13 15:07:43;;;;;;;0.52;0.25;;;;;;;;;;10336314;28;20704;-78
2023/09/13 15:12:45;;;;;;;0.20;0.20;;;;;;;;;;10344968;28;20586;-79
2023/09/13 15:17:46;;;;;;;0.00;0.00;;;;;;;;;;10328121;28;20305;-77
2023/09/13 15:22:47;;;;;;;0.08;0.08;;;;;;;;;;10339882;28;20220;-77
2023/09/13 15:27:48;;;;;;;0.08;0.08;;;;;;;;;;10323279;28;20310;-79
2023/09/13 15:32:49;;;;;;;0.00;0.00;;;;;;;;;;10299882;28;20217;-78
2023/09/13 15:37:50;;;;;;;0.00;0.00;;;;;;;;;;10318304;28;20238;-79
2023/09/13 15:42:56;;;;;;;0.20;0.20;;;;;;;;;;10309145;28;20225;-78
2023/09/13 15:47:57;;;;;;;0.10;0.10;;;;;;;;;;10335707;28;20279;-79
2023/09/13 15:52:58;;;;;;;0.20;0.20;;;;;;;;;;10314297;28;20236;-78
2023/09/13 15:58:01;;;;;;;0.10;0.10;;;;;;;;;;10298140;28;20244;-78
2023/09/13 16:03:02;;;;;;;0.20;0.20;;;;;;;;;;10339092;28;20231;-78
2023/09/13 16:08:03;;;;;;;0.10;0.10;;;;;;;;;;10304101;28;20255;-79
2023/09/13 16:13:04;;;;;;;0.05;0.05;;;;;;;;;;10330903;28;20220;-78
2023/09/13 16:18:06;;;;;;;0.10;0.10;;;;;;;;;;10311874;28;20219;-78
2023/09/13 16:23:07;;;;;;;0.20;0.20;;;;;;;;;;10288445;28;20227;-77
2023/09/13 16:28:08;;;;;;;0.00;0.00;;;;;;;;;;10297706;28;20763;-78
2023/09/13 16:33:09;;;;;;;0.00;0.00;;;;;;;;;;10293007;28;20883;-78
2023/09/13 16:38:10;;;;;;;1.13;0.38;;;;;;;;;;10322459;28;20216;-79
2023/09/13 16:43:11;;;;;;;0.10;0.10;;;;;;;;;;10288262;28;20586;-78
2023/09/13 16:48:12;;;;;;;0.00;0.00;;;;;;;;;;10271388;28;20836;-76
2023/09/13 16:53:13;;;;;;;0.00;0.00;;;;;;;;;;10303819;28;20785;-76
2023/09/13 16:58:15;;;;;;;0.00;0.00;;;;;;;;;;10298104;28;20294;-77
2023/09/13 17:03:16;;;;;;;0.00;0.00;;;;;;;;;;10286695;28;20732;-76
2023/09/13 17:08:17;;;;;;;0.00;0.00;;;;;;;;;;10304651;28;20233;-76
2023/09/13 17:13:21;;;;;;;0.10;0.10;;;;;;;;;;10294679;28;20224;-76
2023/09/13 17:18:23;;;;;;;0.30;0.30;;;;;;;;;;10275042;28;20222;-77
2023/09/13 17:23:24;;;;;;;0.00;0.00;;;;;;;;;;10288681;28;20737;-76
2023/09/13 17:28:25;;;;;;;0.10;0.10;;;;;;;;;;10290029;28;20228;-76
2023/09/13 17:33:26;;;;;;;0.08;0.08;;;;;;;;;;10314798;28;20829;-76
2023/09/13 17:38:28;;;;;;;0.10;0.10;;;;;;;;;;10314075;28;20228;-77
2023/09/13 17:43:29;;;;;;;0.10;0.10;;;;;;;;;;10294257;28;20224;-76
2023/09/13 17:48:30;;;;;;;0.10;0.10;;;;;;;;;;10293611;28;21181;-76
2023/09/13 17:53:31;;;;;;;0.00;0.00;;;;;;;;;;10314769;28;20221;-76
2023/09/13 17:58:32;;;;;;;0.00;0.00;;;;;;;;;;10303001;28;20220;-76
2023/09/13 18:03:34;;;;;;;0.00;0.00;;;;;;;;;;10272917;28;20594;-76
2023/09/13 18:08:35;;;;;;;0.00;0.00;;;;;;;;;;10297076;28;20222;-76
2023/09/13 18:13:36;;;;;;;0.00;0.00;;;;;;;;;;10302954;28;20225;-76
2023/09/13 18:18:38;;;;;;;0.00;0.00;;;;;;;;;;10276212;28;20224;-76
2023/09/13 18:23:39;;;;;;;0.10;0.10;;;;;;;;;;10298613;28;20220;-76
2023/09/13 18:28:40;;;;;;;0.03;0.03;;;;;;;;;;10310920;28;20224;-75
2023/09/13 18:33:43;;;;;;;0.03;0.03;;;;;;;;;;10290882;28;20710;-76
2023/09/13 18:38:44;;;;;;;0.08;0.08;;;;;;;;;;10309299;28;20224;-76
2023/09/13 18:43:45;;;;;;;0.00;0.00;;;;;;;;;;10300828;28;20226;-75
2023/09/13 18:48:46;;;;;;;0.30;0.30;;;;;;;;;;10287865;28;20220;-75
2023/09/13 18:53:47;;;;;;;0.10;0.10;;;;;;;;;;10289163;28;20235;-76
2023/09/13 18:58:48;;;;;;;0.00;0.00;;;;;;;;;;10278366;28;20212;-76
2023/09/13 19:03:51;;;;;;;0.10;0.10;;;;;;;;;;10306953;28;20724;-76
2023/09/13 19:08:55;;;;;;;0.25;0.25;;;;;;;;;;10289354;28;20225;-75
2023/09/13 19:13:56;;;;;;;0.00;0.00;;;;;;;;;;10304701;28;20219;-76
2023/09/13 19:18:59;;;;;;;0.05;0.05;;;;;;;;;;10297932;28;20307;-75
2023/09/13 19:24:00;;;;;;;0.00;0.00;;;;;;;;;;10293391;28;20220;-75
2023/09/13 19:29:01;;;;;;;0.43;0.15;;;;;;;;;;10310472;28;20217;-76
2023/09/13 19:34:03;;;;;;;0.00;0.00;;;;;;;;;;10301088;28;20842;-75
2023/09/13 19:39:05;;;;;;;0.03;0.03;;;;;;;;;;10307465;28;20351;-74
2023/09/13 19:44:07;;;;;;;0.00;0.00;;;;;;;;;;10317794;28;20225;-76
2023/09/13 19:49:08;;;;;;;0.10;0.10;;;;;;;;;;10329734;28;20243;-77
2023/09/13 19:54:09;;;;;;;0.10;0.10;;;;;;;;;;10323716;28;20212;-76
2023/09/13 19:59:10;;;;;;;0.05;0.05;;;;;;;;;;10312939;28;20234;-76
2023/09/13 20:04:11;;;;;;;0.10;0.10;;;;;;;;;;10299518;28;20216;-76
2023/09/13 20:09:12;;;;;;;0.03;0.03;;;;;;;;;;10303834;28;20705;-76
2023/09/13 20:14:13;;;;;;;0.00;0.00;;;;;;;;;;10299772;28;20681;-76
2023/09/13 20:19:14;;;;;;;0.20;0.20;;;;;;;;;;10326829;28;20256;-76
2023/09/13 20:24:15;;;;;;;0.10;0.10;;;;;;;;;;10309578;28;20223;-76
2023/09/13 20:29:16;;;;;;;0.00;0.00;;;;;;;;;;10308073;28;20575;-75
2023/09/13 20:34:18;;;;;;;0.10;0.10;;;;;;;;;;10304209;28;20215;-76
2023/09/13 20:39:19;;;;;;;0.00;0.00;;;;;;;;;;10328033;28;20217;-76
2023/09/13 20:44:20;;;;;;;0.05;0.05;;;;;;;;;;10303908;28;20714;-75
2023/09/13 20:49:21;;;;;;;0.35;0.35;;;;;;;;;;10302142;28;20223;-76
2023/09/13 20:54:24;;;;;;;0.00;0.00;;;;;;;;;;10312122;28;20553;-76
2023/09/13 20:59:25;;;;;;;0.10;0.10;;;;;;;;;;10304470;28;20212;-76
2023/09/13 21:04:27;;;;;;;0.00;0.00;;;;;;;;;;10289508;28;20547;-76
2023/09/13 21:09:28;;;;;;;0.10;0.10;;;;;;;;;;10288742;28;20216;-77
2023/09/13 21:14:31;;;;;;;0.00;0.00;;;;;;;;;;10325868;28;20724;-77
2023/09/13 21:19:32;;;;;;;0.00;0.00;;;;;;;;;;10328465;28;20366;-77
2023/09/13 21:24:33;;;;;;;0.00;0.00;;;;;;;;;;10311217;28;20643;-76
2023/09/13 21:29:37;;;;;;;0.17;0.17;;;;;;;;;;10299928;28;20706;-76
2023/09/13 21:34:38;;;;;;;0.00;0.00;;;;;;;;;;10327117;28;20216;-77
2023/09/13 21:39:39;;;;;;;0.00;0.00;;;;;;;;;;10311929;28;20416;-77
2023/09/13 21:44:40;;;;;;;0.15;0.15;;;;;;;;;;10309693;28;20216;-76
2023/09/13 21:49:41;;;;;;;0.00;0.00;;;;;;;;;;10323985;28;20266;-76
2023/09/13 21:54:46;;;;;;;0.00;0.00;;;;;;;;;;10303032;28;20303;-76
2023/09/13 21:59:47;;;;;;;0.10;0.10;;;;;;;;;;10311099;28;20314;-76
2023/09/13 22:04:48;;;;;;;0.03;0.03;;;;;;;;;;10298560;28;20271;-76
2023/09/13 22:09:49;;;;;;;0.03;0.03;;;;;;;;;;10307185;28;20227;-77
2023/09/13 22:14:54;;;;;;;0.10;0.10;;;;;;;;;;10282293;28;20216;-76
2023/09/13 22:19:57;;;;;;;0.13;0.13;;;;;;;;;;10328442;28;20213;-76
2023/09/13 22:24:59;;;;;;;0.00;0.00;;;;;;;;;;10294261;28;20216;-77
2023/09/13 22:30:00;;;;;;;0.00;0.00;;;;;;;;;;10299854;28;20285;-76
2023/09/13 22:35:01;;;;;;;0.00;0.00;;;;;;;;;;10318330;28;20298;-77
2023/09/13 22:40:02;;;;;;;0.00;0.00;;;;;;;;;;10320064;28;20266;-77
2023/09/13 22:45:04;;;;;;;0.03;0.03;;;;;;;;;;10331074;28;20223;-77
2023/09/13 22:50:07;;;;;;;0.00;0.00;;;;;;;;;;10307456;28;20212;-76
2023/09/13 22:55:08;;;;;;;0.13;0.13;;;;;;;;;;10318690;28;20212;-76
2023/09/13 23:00:10;;;;;;;0.30;0.22;;;;;;;;;;10315340;28;22019;-77
2023/09/13 23:05:11;;;;;;;0.00;0.00;;;;;;;;;;10317986;28;20223;-77
2023/09/13 23:10:12;;;;;;;0.00;0.00;;;;;;;;;;10332065;28;20584;-76
2023/09/13 23:15:14;;;;;;;0.08;0.08;;;;;;;;;;10310186;28;20177;-78
2023/09/13 23:20:15;;;;;;;0.10;0.10;;;;;;;;;;10310887;28;20286;-77
2023/09/13 23:25:17;;;;;;;0.22;0.22;;;;;;;;;;10314437;28;20719;-76
2023/09/13 23:30:18;;;;;;;0.00;0.00;;;;;;;;;;10329339;28;20699;-77
2023/09/13 23:35:19;;;;;;;0.03;0.03;;;;;;;;;;10311849;28;20193;-77
2023/09/13 23:40:20;;;;;;;0.30;0.30;;;;;;;;;;10316692;28;20666;-77
2023/09/13 23:45:21;;;;;;;0.00;0.00;;;;;;;;;;10313747;28;20228;-76
2023/09/13 23:50:23;;;;;;;0.35;0.30;;;;;;;;;;10285197;28;20292;-76
2023/09/13 23:55:23;;;;;;;0.00;0.00;;;;;;;;;;10316868;28;20232;-75
